Time;durP1;ratioP1;P1;durP2;ratioP2;P2;SDS_P1;SDS_P2;PMS_P1;PMS_P2;Temp;Humidity;BMP_temperature;BMP_pressure;BME280_temperature;BME280_humidity;BME280_pressure;Samples;Min_cycle;Max_cycle;Signal;HPM_P1;HPM_P2
2023/04/07 00:01:27;;;;;;;9.03;5.67;;;8.90;19.20;;;;;;5058058;22;20480;-63
2023/04/07 00:03:53;;;;;;;10.93;6.20;;;8.80;19.50;;;;;;5056573;22;20498;-65
2023/04/07 00:06:20;;;;;;;9.57;6.10;;;8.80;20.00;;;;;;5036325;28;20473;-65
2023/04/07 00:08:47;;;;;;;16.10;7.00;;;8.80;20.70;;;;;;5041643;22;20494;-65
2023/04/07 00:11:13;;;;;;;11.77;7.30;;;8.70;21.40;;;;;;5037641;28;20818;-65
2023/04/07 00:13:42;;;;;;;12.20;7.10;;;8.70;22.10;;;;;;5042911;28;20462;-65
2023/04/07 00:16:08;;;;;;;14.67;9.53;;;8.60;22.10;;;;;;5041636;28;20513;-65
2023/04/07 00:18:35;;;;;;;16.27;10.00;;;8.60;22.90;;;;;;5025286;28;20493;-66
2023/04/07 00:21:02;;;;;;;18.33;9.00;;;8.50;23.60;;;;;;5026427;28;20462;-65
2023/04/07 00:23:29;;;;;;;14.67;9.33;;;8.50;24.10;;;;;;5015877;28;20459;-66
2023/04/07 00:25:55;;;;;;;13.83;9.10;;;8.40;24.50;;;;;;5024482;28;20586;-66
2023/04/07 00:28:22;;;;;;;14.73;8.67;;;8.40;24.70;;;;;;5035500;23;20506;-63
2023/04/07 00:30:50;;;;;;;14.33;8.60;;;8.30;24.80;;;;;;5024669;28;20462;-63
2023/04/07 00:33:17;;;;;;;16.73;8.70;;;8.30;25.40;;;;;;5022199;28;20486;-65
2023/04/07 00:35:44;;;;;;;13.50;8.13;;;8.30;25.80;;;;;;5025685;28;20470;-63
2023/04/07 00:38:10;;;;;;;15.03;9.60;;;8.20;25.80;;;;;;5017015;28;20487;-63
2023/04/07 00:40:37;;;;;;;14.53;9.70;;;8.20;25.80;;;;;;5025682;28;20834;-64
2023/04/07 00:43:04;;;;;;;13.63;9.53;;;8.20;26.20;;;;;;5024069;28;20459;-63
2023/04/07 00:45:31;;;;;;;16.43;10.40;;;8.20;26.10;;;;;;5023092;28;21126;-63
2023/04/07 00:47:59;;;;;;;14.77;10.00;;;8.20;25.90;;;;;;5021268;28;20486;-63
2023/04/07 00:50:26;;;;;;;15.67;9.60;;;8.20;25.90;;;;;;5024795;28;20463;-63
2023/04/07 00:52:53;;;;;;;12.67;8.13;;;8.20;26.40;;;;;;5023135;28;20506;-63
2023/04/07 00:55:20;;;;;;;13.03;8.30;;;8.20;25.80;;;;;;5027507;28;20490;-63
2023/04/07 00:57:47;;;;;;;12.57;7.60;;;8.20;26.40;;;;;;5026492;28;20482;-63
2023/04/07 01:00:14;;;;;;;12.10;8.47;;;8.20;26.20;;;;;;5023360;28;20471;-63
2023/04/07 01:02:43;;;;;;;13.50;7.90;;;8.20;26.10;;;;;;5024639;28;20483;-63
2023/04/07 01:05:16;;;;;;;12.90;8.03;;;8.10;26.20;;;;;;5021597;28;20481;-63
2023/04/07 01:07:52;;;;;;;12.10;7.90;;;8.10;26.20;;;;;;5026390;28;21037;-63
2023/04/07 01:10:26;;;;;;;13.37;8.40;;;8.20;26.30;;;;;;5022703;28;20462;-63
2023/04/07 01:12:59;;;;;;;14.40;8.50;;;8.10;26.40;;;;;;5023669;28;20474;-63
2023/04/07 01:15:29;;;;;;;12.93;8.27;;;8.10;26.70;;;;;;5020228;28;20587;-63
2023/04/07 01:18:02;;;;;;;14.60;8.47;;;8.10;26.70;;;;;;5029586;28;20489;-63
2023/04/07 01:20:33;;;;;;;13.50;7.50;;;8.10;27.00;;;;;;5021604;28;20467;-63
2023/04/07 01:23:04;;;;;;;11.97;7.83;;;8.10;27.30;;;;;;5021614;28;20973;-63
2023/04/07 01:25:52;;;;;;;13.40;8.07;;;8.10;27.60;;;;;;5019029;28;20458;-63
2023/04/07 01:28:44;;;;;;;12.77;7.50;;;8.10;27.60;;;;;;5023977;28;20498;-63
2023/04/07 01:31:14;;;;;;;14.40;8.00;;;8.10;27.60;;;;;;5023974;28;20482;-63
2023/04/07 01:33:45;;;;;;;15.90;8.30;;;8.00;27.50;;;;;;5025335;28;20591;-63
2023/04/07 01:36:14;;;;;;;11.53;7.40;;;8.00;28.00;;;;;;5028334;28;22939;-64
2023/04/07 01:38:41;;;;;;;12.80;8.00;;;8.00;27.80;;;;;;5019605;28;20493;-63
2023/04/07 01:41:10;;;;;;;10.67;7.30;;;7.90;28.80;;;;;;5021967;28;20458;-63
2023/04/07 01:43:39;;;;;;;13.97;7.83;;;7.90;28.00;;;;;;5023388;28;20542;-63
2023/04/07 01:46:06;;;;;;;11.53;7.50;;;7.90;27.70;;;;;;5025187;28;20486;-62
2023/04/07 01:48:35;;;;;;;12.97;8.60;;;8.00;27.50;;;;;;5023948;28;20489;-63
2023/04/07 01:51:04;;;;;;;14.73;8.10;;;8.00;27.70;;;;;;5023633;28;20541;-63
2023/04/07 01:53:31;;;;;;;14.17;8.30;;;8.00;27.70;;;;;;5022924;28;20859;-63
2023/04/07 01:55:58;;;;;;;15.00;8.57;;;7.90;27.50;;;;;;5028360;28;20987;-63
2023/04/07 01:58:26;;;;;;;14.70;8.20;;;7.90;27.70;;;;;;5027424;28;21216;-63
2023/04/07 02:00:52;;;;;;;12.80;8.10;;;7.90;27.90;;;;;;5026979;28;20466;-63
2023/04/07 02:03:23;;;;;;;12.33;7.60;;;7.80;28.10;;;;;;5031080;28;20459;-63
2023/04/07 02:05:55;;;;;;;11.57;7.30;;;7.90;27.80;;;;;;5022602;28;21289;-63
2023/04/07 02:08:24;;;;;;;13.57;7.73;;;7.90;27.60;;;;;;5024521;28;20951;-63
2023/04/07 02:10:51;;;;;;;13.20;8.43;;;7.80;28.70;;;;;;5024654;28;20458;-63
2023/04/07 02:13:20;;;;;;;14.17;8.37;;;7.70;28.70;;;;;;5025617;28;20487;-63
2023/04/07 02:15:49;;;;;;;16.10;8.90;;;7.70;30.30;;;;;;5029635;28;20964;-63
2023/04/07 02:18:17;;;;;;;15.53;8.43;;;7.60;30.70;;;;;;5025832;28;20499;-63
2023/04/07 02:20:45;;;;;;;13.40;9.20;;;7.50;31.30;;;;;;5026082;28;20463;-63
2023/04/07 02:23:15;;;;;;;15.87;9.53;;;7.40;32.20;;;;;;5028291;28;20482;-63
2023/04/07 02:25:41;;;;;;;12.47;8.57;;;7.40;32.40;;;;;;5028056;28;20471;-63
2023/04/07 02:28:08;;;;;;;13.70;10.00;;;7.40;33.00;;;;;;5025176;28;20486;-63
2023/04/07 02:30:35;;;;;;;13.70;9.13;;;7.30;33.70;;;;;;5024875;28;20511;-63
2023/04/07 02:33:02;;;;;;;16.03;8.20;;;7.20;34.50;;;;;;5022972;28;20483;-64
2023/04/07 02:35:29;;;;;;;13.10;8.70;;;7.10;35.00;;;;;;5028086;28;21561;-63
2023/04/07 02:37:55;;;;;;;12.40;7.73;;;7.10;34.70;;;;;;5026551;28;21065;-63
2023/04/07 02:40:23;;;;;;;13.20;8.43;;;7.20;34.70;;;;;;5025201;28;20471;-62
2023/04/07 02:42:50;;;;;;;14.53;9.30;;;7.20;35.00;;;;;;5029177;28;20982;-63
2023/04/07 02:45:17;;;;;;;15.20;8.80;;;7.10;35.10;;;;;;5026559;28;20475;-63
2023/04/07 02:47:44;;;;;;;14.17;8.50;;;7.10;35.40;;;;;;5022619;28;20490;-63
2023/04/07 02:50:11;;;;;;;15.87;8.93;;;7.10;35.40;;;;;;5027693;28;21230;-63
2023/04/07 02:52:38;;;;;;;12.73;8.77;;;7.00;35.50;;;;;;5021953;28;20484;-63
2023/04/07 02:55:06;;;;;;;12.33;7.40;;;7.00;35.90;;;;;;5030490;28;20467;-62
2023/04/07 02:57:34;;;;;;;17.40;9.47;;;6.90;36.50;;;;;;5028685;28;20495;-63
2023/04/07 03:00:00;;;;;;;13.60;8.17;;;6.90;36.70;;;;;;5025910;28;21115;-63
2023/04/07 03:02:27;;;;;;;17.50;10.53;;;6.90;37.30;;;;;;5023255;28;20471;-63
2023/04/07 03:04:54;;;;;;;15.20;9.17;;;6.90;37.50;;;;;;5028153;28;20977;-63
2023/04/07 03:07:21;;;;;;;13.83;8.70;;;6.90;37.10;;;;;;5021467;28;20502;-63
2023/04/07 03:09:47;;;;;;;12.87;8.10;;;6.90;37.00;;;;;;5023857;28;20834;-63
2023/04/07 03:12:14;;;;;;;13.10;8.83;;;6.90;37.10;;;;;;5022679;28;20498;-63
2023/04/07 03:14:42;;;;;;;15.07;9.63;;;6.90;37.00;;;;;;5024810;28;20479;-63
2023/04/07 03:17:09;;;;;;;13.60;8.00;;;6.90;36.90;;;;;;5022416;28;20483;-63
2023/04/07 03:19:36;;;;;;;14.80;8.97;;;6.90;37.10;;;;;;5021994;28;20598;-63
2023/04/07 03:22:02;;;;;;;16.97;10.27;;;6.80;37.50;;;;;;5015039;28;20473;-63
2023/04/07 03:24:29;;;;;;;14.97;9.20;;;6.80;37.70;;;;;;5026090;28;20841;-64
2023/04/07 03:26:56;;;;;;;14.03;8.93;;;6.80;37.70;;;;;;5025315;28;20466;-63
2023/04/07 03:29:22;;;;;;;18.73;9.87;;;6.80;37.30;;;;;;5025271;28;20463;-63
2023/04/07 03:31:50;;;;;;;14.10;8.67;;;6.80;37.30;;;;;;5028333;28;20474;-63
2023/04/07 03:34:17;;;;;;;15.47;9.57;;;6.80;37.70;;;;;;5022599;28;20494;-63
2023/04/07 03:36:44;;;;;;;15.00;9.50;;;6.80;37.70;;;;;;5021413;28;20475;-63
2023/04/07 03:39:11;;;;;;;18.60;9.17;;;6.80;38.30;;;;;;5027508;28;20538;-63
2023/04/07 03:41:38;;;;;;;13.60;9.00;;;6.70;38.20;;;;;;5018408;28;22289;-63
2023/04/07 03:44:05;;;;;;;13.77;9.70;;;6.70;38.60;;;;;;5022667;28;20467;-63
2023/04/07 03:46:32;;;;;;;15.70;8.90;;;6.70;38.50;;;;;;5021512;28;21058;-63
2023/04/07 03:49:01;;;;;;;14.73;8.40;;;6.70;38.20;;;;;;5025828;28;20517;-63
2023/04/07 03:51:27;;;;;;;14.10;8.73;;;6.80;37.90;;;;;;5025900;28;20572;-63
2023/04/07 03:53:54;;;;;;;16.03;8.57;;;6.90;37.10;;;;;;5026009;28;20483;-63
2023/04/07 03:56:21;;;;;;;15.77;9.40;;;6.90;36.90;;;;;;5031109;28;20834;-63
2023/04/07 03:58:48;;;;;;;15.90;9.47;;;7.00;36.60;;;;;;5024733;28;20494;-63
2023/04/07 04:01:15;;;;;;;16.03;9.63;;;7.00;36.20;;;;;;5024333;28;20483;-63
2023/04/07 04:03:42;;;;;;;15.47;9.40;;;7.10;35.90;;;;;;5026550;28;20459;-63
2023/04/07 04:06:10;;;;;;;15.30;9.67;;;7.10;35.70;;;;;;5020950;28;20466;-63
2023/04/07 04:08:37;;;;;;;13.33;8.37;;;7.10;35.60;;;;;;5029732;28;20523;-63
2023/04/07 04:11:04;;;;;;;16.07;9.97;;;7.10;35.40;;;;;;5024427;28;20470;-63
2023/04/07 04:13:31;;;;;;;15.83;9.30;;;7.10;35.60;;;;;;5023101;28;20840;-63
2023/04/07 04:15:57;;;;;;;15.90;10.47;;;7.10;35.40;;;;;;5027628;28;20459;-63
2023/04/07 04:18:24;;;;;;;17.00;11.90;;;7.10;35.30;;;;;;5022252;28;20486;-63
2023/04/07 04:20:51;;;;;;;13.60;10.37;;;7.10;34.90;;;;;;5025826;28;20463;-62
2023/04/07 04:23:19;;;;;;;13.97;8.70;;;7.10;34.70;;;;;;5025595;28;20474;-63
2023/04/07 04:25:46;;;;;;;18.03;9.57;;;7.10;35.10;;;;;;5027744;28;20474;-63
2023/04/07 04:28:12;;;;;;;14.63;9.20;;;7.00;35.10;;;;;;5023952;28;20491;-63
2023/04/07 04:30:39;;;;;;;17.03;8.93;;;7.00;34.90;;;;;;5015211;28;20548;-62
2023/04/07 04:33:06;;;;;;;16.30;10.07;;;7.10;35.20;;;;;;5023437;28;20617;-62
2023/04/07 04:35:33;;;;;;;16.23;9.90;;;7.10;35.60;;;;;;5025974;28;20631;-63
2023/04/07 04:37:59;;;;;;;17.30;9.87;;;7.00;35.70;;;;;;5022361;28;20490;-63
2023/04/07 04:40:28;;;;;;;14.83;10.00;;;7.00;35.80;;;;;;5024240;28;20577;-63
2023/04/07 04:42:55;;;;;;;17.63;10.80;;;7.00;36.10;;;;;;5024371;28;20455;-63
2023/04/07 04:45:21;;;;;;;17.17;9.43;;;7.00;35.90;;;;;;5024431;28;20467;-63
2023/04/07 04:47:48;;;;;;;17.73;10.77;;;7.00;35.90;;;;;;5025469;28;20548;-63
2023/04/07 04:50:15;;;;;;;14.70;9.57;;;7.00;36.20;;;;;;5024619;28;20481;-63
2023/04/07 04:52:42;;;;;;;17.47;10.27;;;6.90;36.70;;;;;;5026688;28;20462;-63
2023/04/07 04:55:09;;;;;;;16.63;9.30;;;6.90;37.20;;;;;;5027768;28;20471;-63
2023/04/07 04:57:38;;;;;;;14.40;10.03;;;6.90;36.50;;;;;;5021594;28;20860;-63
2023/04/07 05:00:06;;;;;;;17.93;10.63;;;7.00;36.60;;;;;;5025199;28;20485;-63
2023/04/07 05:02:33;;;;;;;15.43;9.50;;;6.90;36.80;;;;;;5021967;28;20561;-63
2023/04/07 05:05:00;;;;;;;14.00;8.80;;;6.90;36.70;;;;;;5026781;28;20462;-63
2023/04/07 05:07:26;;;;;;;18.13;11.93;;;6.90;37.40;;;;;;5023539;28;20486;-63
2023/04/07 05:09:53;;;;;;;16.67;10.23;;;6.80;37.90;;;;;;5020356;28;20473;-63
2023/04/07 05:12:20;;;;;;;16.50;9.40;;;6.70;38.30;;;;;;5021901;28;20466;-63
2023/04/07 05:14:48;;;;;;;16.60;9.97;;;6.60;38.70;;;;;;5024695;28;20476;-63
2023/04/07 05:17:15;;;;;;;18.23;10.50;;;6.60;38.60;;;;;;5017404;28;20863;-63
2023/04/07 05:19:41;;;;;;;15.30;9.77;;;6.60;38.50;;;;;;5027138;28;20475;-63
2023/04/07 05:22:08;;;;;;;18.20;9.73;;;6.60;38.80;;;;;;5024226;28;20825;-63
2023/04/07 05:24:35;;;;;;;16.97;10.33;;;6.50;39.80;;;;;;5024802;28;20463;-63
2023/04/07 05:27:02;;;;;;;13.80;9.17;;;6.60;38.80;;;;;;5025203;28;20462;-63
2023/04/07 05:29:28;;;;;;;14.27;9.20;;;6.60;38.50;;;;;;5025965;28;20467;-63
2023/04/07 05:31:56;;;;;;;17.40;10.00;;;6.70;38.00;;;;;;5029597;28;20470;-63
2023/04/07 05:34:23;;;;;;;15.57;10.13;;;6.70;38.10;;;;;;5029025;28;20479;-63
2023/04/07 05:36:50;;;;;;;13.03;8.20;;;6.80;37.90;;;;;;5032143;28;20459;-63
2023/04/07 05:39:17;;;;;;;16.07;10.60;;;6.80;37.50;;;;;;5027227;28;20477;-63
2023/04/07 05:41:44;;;;;;;14.97;9.80;;;6.80;37.50;;;;;;5027382;28;20474;-63
2023/04/07 05:44:10;;;;;;;18.23;10.10;;;6.80;37.90;;;;;;5025857;28;20466;-63
2023/04/07 05:46:37;;;;;;;14.57;9.27;;;6.80;37.70;;;;;;5026697;28;20478;-63
2023/04/07 05:49:05;;;;;;;18.57;10.67;;;6.80;38.20;;;;;;5026416;28;20493;-63
2023/04/07 05:51:32;;;;;;;15.97;9.67;;;6.80;37.70;;;;;;5028923;28;20459;-63
2023/04/07 05:54:01;;;;;;;15.50;10.10;;;6.90;37.20;;;;;;5027918;28;20979;-63
2023/04/07 05:56:28;;;;;;;14.50;9.40;;;7.00;36.90;;;;;;5030216;28;20470;-63
2023/04/07 05:58:55;;;;;;;13.60;9.73;;;7.00;36.60;;;;;;5029086;28;20862;-63
2023/04/07 06:01:22;;;;;;;14.00;9.40;;;7.10;36.60;;;;;;5029857;28;20885;-63
2023/04/07 06:03:49;;;;;;;14.17;9.37;;;7.20;36.10;;;;;;5028484;28;20471;-64
2023/04/07 06:06:17;;;;;;;15.97;10.20;;;7.20;36.10;;;;;;5029457;28;20503;-63
2023/04/07 06:08:44;;;;;;;16.07;9.40;;;7.20;36.00;;;;;;5029467;28;20478;-63
2023/04/07 06:11:11;;;;;;;15.30;9.67;;;7.30;36.20;;;;;;5027642;28;20553;-63
2023/04/07 06:13:38;;;;;;;15.23;9.17;;;7.30;35.90;;;;;;5032066;28;21018;-63
2023/04/07 06:16:05;;;;;;;15.30;9.57;;;7.40;35.60;;;;;;5029524;28;20467;-63
2023/04/07 06:18:32;;;;;;;13.63;8.37;;;7.40;35.40;;;;;;5032109;28;20514;-63
2023/04/07 06:20:58;;;;;;;14.80;9.07;;;7.50;35.70;;;;;;5019162;28;20475;-63
2023/04/07 06:23:26;;;;;;;13.37;7.93;;;7.40;35.70;;;;;;5030705;28;20470;-63
2023/04/07 06:25:53;;;;;;;17.70;8.90;;;7.40;35.50;;;;;;5028973;28;20959;-63
2023/04/07 06:28:21;;;;;;;14.60;9.57;;;7.40;35.60;;;;;;5036970;22;20498;-65
2023/04/07 06:30:47;;;;;;;16.73;10.07;;;7.40;35.30;;;;;;5006079;28;20475;-66
2023/04/07 06:33:14;;;;;;;12.10;7.50;;;7.50;35.30;;;;;;5006270;28;20487;-65
2023/04/07 06:35:41;;;;;;;14.40;9.03;;;7.50;35.40;;;;;;5006571;28;21057;-65
2023/04/07 06:38:10;;;;;;;14.03;8.13;;;7.60;35.30;;;;;;5006091;28;21050;-65
2023/04/07 06:40:38;;;;;;;13.50;8.50;;;7.60;35.40;;;;;;4999541;28;20473;-65
2023/04/07 06:43:05;;;;;;;13.30;8.40;;;7.60;35.60;;;;;;5000221;28;20990;-66
2023/04/07 06:45:31;;;;;;;16.13;9.30;;;7.60;35.50;;;;;;4999948;28;20464;-65
2023/04/07 06:47:58;;;;;;;14.37;8.83;;;7.70;35.40;;;;;;4998254;28;20495;-65
2023/04/07 06:50:25;;;;;;;13.43;8.70;;;7.80;35.00;;;;;;5002840;28;20461;-66
2023/04/07 06:52:51;;;;;;;14.00;9.57;;;7.90;35.20;;;;;;5000227;28;20468;-66
2023/04/07 06:55:18;;;;;;;15.77;10.10;;;8.00;35.00;;;;;;4997762;28;20487;-66
2023/04/07 06:57:46;;;;;;;11.50;8.10;;;8.10;34.90;;;;;;5000375;28;20490;-66
2023/04/07 07:00:14;;;;;;;18.00;9.80;;;8.20;34.80;;;;;;4996735;28;20479;-65
2023/04/07 07:02:40;;;;;;;14.80;9.27;;;8.20;34.70;;;;;;5001703;28;20474;-65
2023/04/07 07:05:07;;;;;;;15.37;10.00;;;8.30;34.60;;;;;;5003994;28;20455;-65
2023/04/07 07:07:34;;;;;;;13.40;8.43;;;8.40;34.20;;;;;;4996298;28;20493;-65
2023/04/07 07:10:01;;;;;;;13.87;10.20;;;8.50;33.50;;;;;;4999900;28;20460;-65
2023/04/07 07:12:28;;;;;;;12.97;9.23;;;8.60;33.10;;;;;;4997673;28;20464;-64
2023/04/07 07:14:56;;;;;;;13.40;8.60;;;8.80;32.90;;;;;;5000863;28;20481;-64
2023/04/07 07:17:22;;;;;;;14.10;9.80;;;9.00;32.50;;;;;;4996919;28;20484;-63
2023/04/07 07:19:49;;;;;;;12.60;8.63;;;9.00;32.00;;;;;;4999474;28;20497;-64
2023/04/07 07:22:16;;;;;;;12.50;8.43;;;9.10;31.40;;;;;;4993552;28;20499;-63
2023/04/07 07:24:42;;;;;;;13.63;9.00;;;9.20;31.30;;;;;;4992250;28;20453;-64
2023/04/07 07:27:09;;;;;;;11.53;8.00;;;9.30;30.90;;;;;;4996090;28;20484;-64
2023/04/07 07:29:36;;;;;;;14.13;8.60;;;9.70;30.20;;;;;;4995543;28;20495;-64
2023/04/07 07:32:04;;;;;;;14.17;8.03;;;10.00;28.90;;;;;;4995165;28;20480;-65
2023/04/07 07:34:31;;;;;;;12.13;7.93;;;10.20;28.10;;;;;;5000825;28;20483;-65
2023/04/07 07:36:58;;;;;;;15.60;8.00;;;10.70;26.90;;;;;;5001304;28;20547;-64
2023/04/07 07:39:25;;;;;;;11.33;7.67;;;11.80;24.20;;;;;;4992218;28;20465;-66
2023/04/07 07:41:52;;;;;;;10.90;7.47;;;13.60;19.00;;;;;;4991729;28;20461;-65
2023/04/07 07:44:20;;;;;;;13.53;9.50;;;16.70;13.50;;;;;;4998928;28;20456;-65
2023/04/07 07:46:46;;;;;;;11.97;8.73;;;18.00;9.30;;;;;;4995127;28;20890;-66
2023/04/07 07:49:14;;;;;;;11.47;8.20;;;18.20;8.70;;;;;;5000141;28;20456;-65
2023/04/07 07:51:41;;;;;;;11.30;8.17;;;18.40;7.50;;;;;;5000572;28;20464;-65
2023/04/07 07:54:08;;;;;;;10.83;7.80;;;18.70;6.70;;;;;;5010700;28;20483;-66
2023/04/07 07:56:35;;;;;;;10.47;7.73;;;20.70;5.70;;;;;;5000805;28;20491;-66
2023/04/07 07:59:02;;;;;;;13.13;7.67;;;24.20;1.00;;;;;;4989197;28;20487;-66
2023/04/07 08:01:28;;;;;;;9.30;7.30;;;27.40;1.00;;;;;;4992051;28;20484;-66
2023/04/07 08:03:55;;;;;;;9.47;7.40;;;30.00;1.00;;;;;;4997362;28;20448;-66
2023/04/07 08:06:23;;;;;;;9.23;6.70;;;31.60;1.00;;;;;;4996689;28;20464;-66
2023/04/07 08:11:25;;;;;;;8.63;7.10;;;30.30;1.00;;;;;;5050533;22;20489;-72
2023/04/07 08:13:53;;;;;;;11.70;7.43;;;29.50;1.00;;;;;;5042874;28;20482;-69
2023/04/07 08:16:20;;;;;;;8.20;7.27;;;28.20;1.00;;;;;;5042698;28;20468;-66
2023/04/07 08:18:47;;;;;;;10.23;7.10;;;27.10;1.00;;;;;;5037526;28;20496;-67
2023/04/07 08:21:14;;;;;;;10.10;8.07;;;26.20;1.00;;;;;;5014816;28;20463;-68
2023/04/07 08:23:42;;;;;;;8.27;6.83;;;25.80;1.00;;;;;;5021070;28;20513;-67
2023/04/07 08:26:09;;;;;;;7.60;6.53;;;27.20;1.00;;;;;;5020099;28;20459;-68
2023/04/07 08:28:36;;;;;;;8.20;6.37;;;29.90;1.00;;;;;;5008414;28;20853;-70
2023/04/07 08:31:02;;;;;;;8.10;6.70;;;31.90;1.00;;;;;;5017123;28;20485;-67
2023/04/07 08:33:29;;;;;;;7.50;6.13;;;32.50;1.00;;;;;;5020959;28;20465;-68
2023/04/07 08:35:56;;;;;;;9.50;6.93;;;32.30;1.00;;;;;;5027989;28;20490;-69
2023/04/07 08:38:23;;;;;;;8.37;7.23;;;32.60;1.00;;;;;;5025057;28;20466;-71
2023/04/07 08:40:58;;;;;;;9.20;6.77;;;34.00;1.00;;;;;;5020715;28;20474;-69
2023/04/07 08:43:27;;;;;;;7.83;6.87;;;35.80;1.00;;;;;;5023492;28;20462;-70
2023/04/07 08:45:57;;;;;;;7.17;6.33;;;36.00;1.00;;;;;;5024305;28;20462;-71
2023/04/07 08:48:26;;;;;;;7.60;6.73;;;35.60;1.00;;;;;;5020522;28;20479;-67
2023/04/07 08:50:53;;;;;;;7.87;6.40;;;35.00;1.00;;;;;;5017782;28;21612;-70
2023/04/07 08:53:26;;;;;;;7.33;6.27;;;34.50;1.00;;;;;;5025844;28;20550;-69
2023/04/07 08:55:55;;;;;;;7.67;6.13;;;34.10;1.00;;;;;;5018255;28;22355;-68
2023/04/07 08:58:23;;;;;;;8.07;6.97;;;34.40;1.00;;;;;;5025097;28;20473;-70
2023/04/07 09:00:50;;;;;;;7.57;5.57;;;34.80;1.00;;;;;;5018723;28;20488;-69
2023/04/07 09:03:18;;;;;;;7.37;6.07;;;36.20;1.00;;;;;;5020770;28;20467;-67
2023/04/07 09:05:46;;;;;;;7.97;6.40;;;37.90;1.00;;;;;;5020607;28;20832;-67
2023/04/07 09:08:12;;;;;;;9.00;5.87;;;39.20;1.00;;;;;;5019728;28;20537;-67
2023/04/07 09:10:39;;;;;;;8.87;6.07;;;40.40;1.00;;;;;;5015379;28;20467;-67
2023/04/07 09:13:07;;;;;;;7.40;6.10;;;41.50;1.00;;;;;;5020184;28;20463;-66
2023/04/07 09:15:34;;;;;;;7.83;6.87;;;42.30;1.00;;;;;;5018978;28;21344;-70
2023/04/07 09:18:02;;;;;;;6.57;5.60;;;43.00;1.00;;;;;;5020433;28;20467;-66
2023/04/07 09:20:48;;;;;;;7.37;5.40;;;43.00;1.00;;;;;;5024476;28;20503;-67
2023/04/07 09:23:28;;;;;;;9.77;5.37;;;43.30;1.00;;;;;;5021153;28;20469;-66
2023/04/07 09:25:55;;;;;;;7.27;5.90;;;42.60;1.00;;;;;;5020849;28;20521;-66
2023/04/07 09:28:23;;;;;;;8.70;5.37;;;40.20;1.00;;;;;;5020257;28;20459;-66
2023/04/07 09:30:54;;;;;;;9.07;6.47;;;37.80;1.00;;;;;;5022986;28;20555;-68
2023/04/07 09:33:27;;;;;;;7.10;6.10;;;36.00;1.00;;;;;;5026961;28;20507;-67
2023/04/07 09:35:55;;;;;;;8.30;6.93;;;35.10;1.00;;;;;;5024014;28;20486;-67
2023/04/07 09:38:21;;;;;;;9.00;5.70;;;34.10;1.00;;;;;;5023494;28;20499;-67
2023/04/07 09:40:48;;;;;;;6.20;4.80;;;33.30;1.00;;;;;;5019143;28;20505;-67
2023/04/07 09:43:17;;;;;;;7.93;5.30;;;33.30;1.00;;;;;;5023801;28;20455;-67
2023/04/07 09:45:45;;;;;;;8.27;5.87;;;33.30;1.00;;;;;;5020614;28;20470;-66
2023/04/07 09:48:19;;;;;;;7.60;5.77;;;33.50;1.00;;;;;;5023413;28;20545;-69
2023/04/07 09:50:48;;;;;;;7.93;5.83;;;33.10;1.00;;;;;;5021107;28;20467;-66
2023/04/07 09:53:15;;;;;;;8.37;5.67;;;32.60;1.00;;;;;;5019147;28;20495;-66
2023/04/07 09:55:43;;;;;;;7.97;5.97;;;32.40;1.00;;;;;;5024497;28;21073;-65
2023/04/07 09:58:13;;;;;;;7.67;5.20;;;31.90;1.00;;;;;;5021566;28;20467;-67
2023/04/07 10:00:40;;;;;;;7.53;6.20;;;30.70;1.00;;;;;;5023419;28;20474;-66
2023/04/07 10:03:09;;;;;;;8.13;5.80;;;29.70;1.00;;;;;;5026816;28;20467;-66
2023/04/07 10:05:36;;;;;;;7.67;6.60;;;28.90;1.00;;;;;;5024491;28;20471;-66
2023/04/07 10:08:05;;;;;;;8.70;7.00;;;28.30;1.00;;;;;;5021764;28;20474;-67
2023/04/07 10:10:33;;;;;;;7.83;5.80;;;27.70;1.00;;;;;;5020481;28;20467;-66
2023/04/07 10:15:30;;;;;;;8.60;7.10;;;26.90;1.00;;;;;;4997529;22;20498;-66
2023/04/07 10:17:58;;;;;;;9.93;8.00;;;26.30;1.00;;;;;;5033102;22;21048;-65
2023/04/07 10:20:28;;;;;;;11.03;8.10;;;25.80;1.00;;;;;;5013925;28;20482;-65
2023/04/07 10:23:01;;;;;;;11.23;7.80;;;25.20;1.00;;;;;;5035922;28;20470;-65
2023/04/07 10:25:29;;;;;;;10.93;7.90;;;24.90;1.00;;;;;;5028555;28;20964;-66
2023/04/07 10:28:02;;;;;;;11.40;8.47;;;24.40;1.00;;;;;;5015778;28;20978;-66
2023/04/07 10:30:31;;;;;;;10.70;8.47;;;24.30;1.00;;;;;;5024173;28;20489;-64
2023/04/07 10:32:58;;;;;;;10.73;7.07;;;24.10;1.00;;;;;;5056416;22;20704;-65
2023/04/07 10:35:27;;;;;;;11.33;8.37;;;23.80;1.00;;;;;;5042624;28;20497;-65
2023/04/07 10:38:12;;;;;;;11.80;7.30;;;23.30;1.00;;;;;;5045736;28;20466;-63
2023/04/07 10:40:39;;;;;;;15.33;8.03;;;23.10;1.00;;;;;;5045995;28;20682;-63
2023/04/07 10:43:09;;;;;;;11.20;7.43;;;23.00;1.00;;;;;;5043211;28;20505;-64
2023/04/07 10:45:58;;;;;;;9.20;6.50;;;23.10;1.00;;;;;;5050320;28;20457;-63
2023/04/07 10:48:27;;;;;;;10.00;6.37;;;23.00;1.00;;;;;;5043806;28;20540;-63
2023/04/07 10:51:17;;;;;;;8.97;6.30;;;23.10;1.00;;;;;;5047876;28;20470;-64
2023/04/07 10:54:19;;;;;;;10.47;5.33;;;23.00;1.00;;;;;;5046144;28;20895;-63
2023/04/07 10:57:06;;;;;;;9.47;6.57;;;22.40;1.00;;;;;;5046431;28;20465;-64
2023/04/07 10:59:34;;;;;;;12.50;5.70;;;22.10;1.00;;;;;;5046112;28;20490;-63
2023/04/07 11:02:30;;;;;;;12.23;6.57;;;22.20;1.00;;;;;;5045746;28;20473;-64
2023/04/07 11:04:56;;;;;;;12.40;6.50;;;22.50;1.00;;;;;;5043136;28;20482;-64
2023/04/07 11:07:44;;;;;;;8.73;6.40;;;22.50;1.00;;;;;;5049787;28;21289;-63
2023/04/07 11:10:14;;;;;;;8.30;5.40;;;22.80;1.00;;;;;;5044192;28;21094;-63
2023/04/07 11:12:41;;;;;;;8.20;5.57;;;23.10;1.00;;;;;;5043906;28;20479;-64
2023/04/07 11:15:18;;;;;;;9.13;5.47;;;23.10;1.00;;;;;;5039635;28;20910;-65
2023/04/07 11:17:45;;;;;;;8.47;5.50;;;22.90;1.00;;;;;;5042875;28;20478;-64
2023/04/07 11:20:11;;;;;;;8.10;5.40;;;22.70;1.00;;;;;;5038772;28;20471;-64
2023/04/07 11:22:40;;;;;;;7.43;4.93;;;22.50;1.00;;;;;;5041803;28;20471;-64
2023/04/07 11:25:21;;;;;;;8.07;5.87;;;22.50;1.00;;;;;;5044874;28;20565;-63
2023/04/07 11:27:48;;;;;;;8.97;5.93;;;22.50;1.00;;;;;;5043123;28;20881;-63
2023/04/07 11:30:17;;;;;;;8.73;6.60;;;22.40;1.00;;;;;;5039874;28;20467;-63
2023/04/07 11:32:49;;;;;;;8.30;6.07;;;22.20;1.00;;;;;;5044015;28;20466;-64
2023/04/07 11:35:16;;;;;;;10.87;6.10;;;21.80;1.00;;;;;;5042108;28;20490;-63
2023/04/07 11:37:44;;;;;;;9.83;6.67;;;21.40;1.00;;;;;;5044514;28;20466;-63
2023/04/07 11:40:15;;;;;;;10.57;6.60;;;21.00;1.00;;;;;;5043166;28;20477;-63
2023/04/07 11:42:45;;;;;;;8.97;5.27;;;20.60;1.00;;;;;;5036560;28;20466;-63
2023/04/07 11:45:18;;;;;;;11.80;6.23;;;20.40;1.00;;;;;;5041828;28;20498;-63
2023/04/07 11:47:45;;;;;;;7.70;5.00;;;20.10;1.00;;;;;;5042221;28;20474;-63
2023/04/07 11:50:12;;;;;;;7.03;4.67;;;20.00;1.00;;;;;;5043191;28;20465;-63
2023/04/07 11:52:43;;;;;;;8.30;4.60;;;19.80;1.00;;;;;;5042556;28;20469;-63
2023/04/07 11:55:18;;;;;;;7.73;4.63;;;19.50;1.00;;;;;;5040549;28;20489;-66
2023/04/07 11:57:45;;;;;;;7.47;4.40;;;19.30;1.00;;;;;;5033798;28;20556;-62
2023/04/07 12:00:14;;;;;;;7.97;4.93;;;19.00;1.40;;;;;;5034188;28;21043;-62
2023/04/07 12:02:41;;;;;;;8.60;4.87;;;19.00;1.70;;;;;;5038810;28;20573;-64
2023/04/07 12:05:10;;;;;;;10.10;4.73;;;18.90;2.20;;;;;;5039824;28;20481;-63
2023/04/07 12:07:37;;;;;;;7.40;4.20;;;18.80;1.00;;;;;;5033989;28;20470;-63
2023/04/07 12:12:56;;;;;;;7.40;4.83;;;18.70;1.20;;;;;;5117518;27;20540;-64
2023/04/07 12:15:23;;;;;;;7.53;4.70;;;18.70;1.10;;;;;;5108574;27;20478;-64
2023/04/07 12:17:50;;;;;;;7.43;5.20;;;18.70;2.10;;;;;;5117493;27;21041;-64
2023/04/07 12:20:17;;;;;;;9.60;5.50;;;18.80;2.80;;;;;;5115538;27;21024;-64
2023/04/07 12:22:44;;;;;;;7.13;4.70;;;18.70;2.50;;;;;;5108446;27;20466;-64
2023/04/07 12:25:11;;;;;;;7.80;5.20;;;18.70;2.50;;;;;;5114460;27;20486;-64
2023/04/07 12:27:37;;;;;;;9.80;5.07;;;18.50;2.80;;;;;;5117242;27;20458;-64
2023/04/07 12:30:07;;;;;;;6.50;4.60;;;18.20;2.80;;;;;;5114835;27;20466;-64
2023/04/07 12:32:34;;;;;;;8.40;5.30;;;17.90;3.50;;;;;;5101108;28;20864;-64
2023/04/07 12:35:01;;;;;;;9.70;6.10;;;17.40;3.60;;;;;;5094439;28;20518;-64
2023/04/07 12:37:28;;;;;;;8.60;5.17;;;17.00;4.60;;;;;;5099456;28;20463;-64
2023/04/07 12:39:54;;;;;;;8.80;4.90;;;16.90;5.60;;;;;;5102182;28;20462;-64
2023/04/07 12:42:21;;;;;;;9.13;5.83;;;17.00;6.10;;;;;;5095719;28;20460;-64
2023/04/07 12:44:48;;;;;;;8.17;5.00;;;17.10;6.50;;;;;;5096052;28;20490;-64
2023/04/07 12:47:16;;;;;;;10.90;5.30;;;17.10;5.70;;;;;;5099828;28;20455;-64
2023/04/07 12:49:43;;;;;;;8.87;5.60;;;17.00;5.50;;;;;;5097656;28;20463;-64
2023/04/07 12:52:09;;;;;;;8.97;5.00;;;16.90;5.50;;;;;;5102701;28;20475;-64
2023/04/07 12:54:37;;;;;;;8.10;5.10;;;16.80;5.60;;;;;;5092743;28;20494;-64
2023/04/07 12:57:03;;;;;;;9.97;5.57;;;16.70;5.90;;;;;;5099417;28;20460;-64
2023/04/07 12:59:30;;;;;;;8.87;5.20;;;16.50;6.30;;;;;;5099475;28;20460;-64
2023/04/07 13:01:57;;;;;;;9.00;4.67;;;16.30;6.80;;;;;;5097540;28;20503;-64